| Date | Time | Temp. (oF) | Dew Point (oF) | Rel. Hum. (%) | Press. (in.) | Wind Dir. | Wind Speed (mph) | Hourly Rainfall (in.) |
|
|---|---|---|---|---|---|---|---|---|---|
| 1 | 05/21 | 00:00 | 66 | 60 | 83 | 30.18 | ESE | 5 | 0.00 |
| 2 | 05/20 | 23:00 | 66 | 58 | 77 | 30.19 | ENE | 1 | 0.00 |
| 3 | 05/20 | 22:00 | 68 | 58 | 73 | 30.19 | NE | 3 | 0.00 |
| 4 | 05/20 | 21:00 | 70 | 57 | 65 | 30.19 | SE | 3 | 0.00 |
| 5 | 05/20 | 20:00 | 72 | 56 | 58 | 30.18 | E | 5 | 0.00 |
| 6 | 05/20 | 19:00 | 74 | 52 | 48 | 30.17 | ESE | 8 | 0.00 |
| 7 | 05/20 | 18:00 | 78 | 54 | 45 | 30.15 | ESE | 4 | 0.00 |
| 8 | 05/20 | 17:00 | 80 | 53 | 40 | 30.14 | SSE | 13 | 0.00 |
| 9 | 05/20 | 16:00 | 81 | 48 | 32 | 30.16 | E | 9 | 0.00 |
| 10 | 05/20 | 15:00 | 82 | 46 | 29 | 30.18 | NNE | 6 | 0.00 |
| 11 | 05/20 | 14:00 | 81 | 48 | 32 | 30.19 | ENE | 6 | 0.00 |
| 12 | 05/20 | 13:00 | 80 | 51 | 38 | 30.20 | ESE | 3 | 0.00 |
| 13 | 05/20 | 12:00 | 78 | 49 | 37 | 30.22 | E | 6 | 0.00 |
| 14 | 05/20 | 11:00 | 76 | 54 | 47 | 30.23 | ESE | 8 | 0.00 |
| 15 | 05/20 | 10:00 | 73 | 49 | 44 | 30.24 | ESE | 2 | 0.00 |
| 16 | 05/20 | 09:00 | 68 | 50 | 54 | 30.23 | N | 3 | 0.00 |
| 17 | 05/20 | 08:00 | 60 | 54 | 83 | 30.23 | S | 0 | 0.00 |
| 18 | 05/20 | 07:00 | 53 | 51 | 96 | 30.22 | WSW | 0 | 0.00 |
| 19 | 05/20 | 06:00 | 52 | 50 | 94 | 30.21 | ESE | 0 | 0.00 |
| 20 | 05/20 | 05:00 | 53 | 50 | 91 | 30.19 | SW | 0 | 0.00 |
| 21 | 05/20 | 04:00 | 55 | 50 | 85 | 30.18 | NNE | 0 | 0.00 |
| 22 | 05/20 | 03:00 | 57 | 52 | 86 | 30.18 | NNE | 0 | 0.00 |
| 23 | 05/20 | 02:00 | 58 | 53 | 84 | 30.18 | ENE | 0 | 0.00 |
| 24 | 05/20 | 01:00 | 59 | 54 | 84 | 30.18 | ENE | 0 | 0.00 |